Portada
METAR-TAF:

METAR-TAF

Aeroports :

Coolangatta, Austràlia

latitud: 28-10S, longitud: 153-30E, altitud: 6 m

Observació

L'informe es va fer fa 22 minuts, a les 10:30 UTC
Vent 10 kt del Nord
Temperatura 22°C
Humitat 83%
Pressió 1013 hPa
Visibilitat 10 km o més

METAR: YBCG 231030Z AUTO 36010KT 9999 // NCD 22/19 Q1013 RF00.0/000.0

Hora: 20:52 (10:52 UTC)

Pronòstic

L'informe es va fer fa 5 hores i 48 minuts, a les 05:04 UTC
Pronòstic vàlid del 23 a les 06 UTC al 24 a les 06 UTC
Vent 14 kt del Nord/Nord-Est
Visibilitat 10 km o més
Núvols disperses a una alçada de 3000 ft
A partir de les 23 a les 1100 UTC
Vent 8 kt del Nord/Nord-Oest
Visibilitat 10 km o més
Núvols disperses a una alçada de 2000 ft
Cel ennuvolat a una alçada de 3500 ft
A partir de les 23 a les 2200 UTC
Vent 18 kt del Nord
Visibilitat 10 km o més
Núvols disperses a una alçada de 3000 ft

TAF: YBCG 230504Z 2306/2406 02014KT 9999 SCT030 FM231100 34008KT 9999 SCT020 BKN035 FM232200 36018KT 9999 SCT030

Observacions i pronòstics meteorològics de més de 4000 aeroports (METAR i TAF).

Les estacions disponibles són els punts grocs i vermells al mapa.

Posi el ratolí al punt desitjat per veure el nom de l'estació.

Feu clic per veure les observacions i els pronòstics meteorològics.

Per canviar el mapa: feu clic els botons verds amb una creu de color negre per apropar; al botó verd amb un guió per allunyar la imatge; o en les fletxes verdes per a mapes adjacents.


METAR-TAF: